Time;durP1;ratioP1;P1;durP2;ratioP2;P2;SDS_P1;SDS_P2;PMS_P1;PMS_P2;Temp;Humidity;BMP_temperature;BMP_pressure;BME280_temperature;BME280_humidity;BME280_pressure;Samples;Min_cycle;Max_cycle;Signal;HPM_P1;HPM_P2
2022/05/07 00:00:52;;;;;;;18.40;15.93;;;;;;;;;;5094931;28;20109;-33
2022/05/07 00:03:18;;;;;;;17.88;15.98;;;;;;;;;;5096657;28;20601;-33
2022/05/07 00:05:44;;;;;;;19.23;16.63;;;;;;;;;;5088241;28;20039;-31
2022/05/07 00:08:10;;;;;;;20.67;17.45;;;;;;;;;;5093479;28;20040;-30
2022/05/07 00:10:36;;;;;;;20.02;16.50;;;;;;;;;;5099094;28;20032;-29
2022/05/07 00:13:04;;;;;;;18.13;16.20;;;;;;;;;;5094391;28;20078;-30
2022/05/07 00:15:31;;;;;;;17.27;15.57;;;;;;;;;;5112998;28;20034;-30
2022/05/07 00:18:01;;;;;;;18.45;16.38;;;;;;;;;;5105498;28;20044;-32
2022/05/07 00:20:27;;;;;;;18.77;16.70;;;;;;;;;;5075776;28;20052;-32
2022/05/07 00:22:54;;;;;;;19.02;16.38;;;;;;;;;;5092787;28;20502;-29
2022/05/07 00:25:20;;;;;;;18.88;16.88;;;;;;;;;;5099055;28;20062;-29
2022/05/07 00:27:46;;;;;;;19.90;17.90;;;;;;;;;;5095899;28;20039;-33
2022/05/07 00:30:12;;;;;;;20.27;17.92;;;;;;;;;;5078657;28;20122;-33
2022/05/07 00:32:39;;;;;;;21.25;19.05;;;;;;;;;;5092621;28;20478;-31
2022/05/07 00:35:05;;;;;;;20.80;18.70;;;;;;;;;;5093888;28;20439;-31
2022/05/07 00:37:32;;;;;;;21.90;19.58;;;;;;;;;;5092899;28;20493;-31
2022/05/07 00:39:58;;;;;;;20.58;18.40;;;;;;;;;;5090998;27;20071;-32
2022/05/07 00:42:24;;;;;;;25.88;21.92;;;;;;;;;;5133041;27;20486;-32
2022/05/07 00:44:51;;;;;;;22.65;20.17;;;;;;;;;;5111015;27;20082;-31
2022/05/07 00:47:17;;;;;;;23.05;20.15;;;;;;;;;;5092289;28;20047;-31
2022/05/07 00:49:47;;;;;;;23.77;21.13;;;;;;;;;;5087628;28;20118;-30
2022/05/07 00:52:18;;;;;;;24.98;21.50;;;;;;;;;;5112518;28;20153;-31
2022/05/07 00:54:45;;;;;;;22.98;20.02;;;;;;;;;;5095864;28;20098;-30
2022/05/07 00:57:15;;;;;;;22.50;20.05;;;;;;;;;;5112584;28;20054;-34
2022/05/07 00:59:41;;;;;;;20.95;18.85;;;;;;;;;;5081441;28;20126;-33
2022/05/07 01:02:08;;;;;;;20.80;18.70;;;;;;;;;;5093017;28;20036;-32
2022/05/07 01:04:37;;;;;;;22.48;19.52;;;;;;;;;;5101756;28;20458;-31
2022/05/07 01:07:04;;;;;;;21.10;18.13;;;;;;;;;;5092717;28;20449;-30
2022/05/07 01:09:31;;;;;;;18.52;16.63;;;;;;;;;;5075477;28;20122;-31
2022/05/07 01:11:58;;;;;;;18.02;16.23;;;;;;;;;;5113351;28;20484;-34
2022/05/07 01:14:24;;;;;;;18.73;16.73;;;;;;;;;;5094239;28;20039;-33
2022/05/07 01:16:53;;;;;;;20.33;17.50;;;;;;;;;;5094659;28;20043;-33
2022/05/07 01:19:19;;;;;;;22.77;20.10;;;;;;;;;;5112336;28;20043;-30
2022/05/07 01:21:45;;;;;;;19.63;17.70;;;;;;;;;;5093841;28;20082;-33
2022/05/07 01:24:11;;;;;;;18.42;16.52;;;;;;;;;;5094957;28;20047;-31
2022/05/07 01:26:39;;;;;;;19.13;17.15;;;;;;;;;;5106377;28;20055;-30
2022/05/07 01:29:07;;;;;;;19.77;17.70;;;;;;;;;;5103410;28;20054;-30
2022/05/07 01:31:34;;;;;;;20.48;18.45;;;;;;;;;;5091342;28;20076;-29
2022/05/07 01:34:00;;;;;;;19.63;17.63;;;;;;;;;;5091835;28;20036;-30
2022/05/07 01:36:26;;;;;;;22.70;20.40;;;;;;;;;;5074286;28;20390;-32
2022/05/07 01:38:52;;;;;;;24.65;22.08;;;;;;;;;;5091297;28;20063;-31
2022/05/07 01:41:19;;;;;;;25.67;23.00;;;;;;;;;;5090707;28;20075;-31
2022/05/07 01:43:45;;;;;;;26.02;23.25;;;;;;;;;;5107666;28;20071;-32
2022/05/07 01:48:55;;;;;;;24.55;21.88;;;;;;;;;;5112918;28;20047;-29
2022/05/07 01:51:22;;;;;;;25.23;22.52;;;;;;;;;;5111091;28;20089;-33
2022/05/07 01:53:48;;;;;;;25.05;22.50;;;;;;;;;;5110747;28;20118;-34
2022/05/07 01:56:14;;;;;;;27.30;23.73;;;;;;;;;;5111395;28;20480;-32
2022/05/07 01:58:40;;;;;;;29.17;24.95;;;;;;;;;;5111571;28;20489;-31
2022/05/07 02:01:06;;;;;;;26.67;23.88;;;;;;;;;;5094204;28;20086;-31
2022/05/07 02:03:32;;;;;;;27.10;23.25;;;;;;;;;;5083126;28;20035;-35
2022/05/07 02:05:58;;;;;;;26.60;23.45;;;;;;;;;;5091117;28;20061;-32
2022/05/07 02:08:24;;;;;;;24.30;21.85;;;;;;;;;;5092266;28;20390;-31
2022/05/07 02:10:51;;;;;;;27.92;24.67;;;;;;;;;;5074449;28;20047;-30
2022/05/07 02:13:17;;;;;;;26.83;23.90;;;;;;;;;;5094290;28;20047;-30
2022/05/07 02:15:43;;;;;;;27.00;22.25;;;;;;;;;;5111262;28;20039;-32
2022/05/07 02:18:09;;;;;;;26.67;23.30;;;;;;;;;;5110586;28;20035;-33
2022/05/07 02:20:36;;;;;;;27.10;24.20;;;;;;;;;;5097370;28;20490;-30
2022/05/07 02:23:02;;;;;;;27.02;24.23;;;;;;;;;;5074498;28;20516;-31
2022/05/07 02:25:28;;;;;;;26.15;23.08;;;;;;;;;;5091507;28;20036;-31
2022/05/07 02:27:54;;;;;;;30.85;26.30;;;;;;;;;;5073594;28;20040;-31
2022/05/07 02:30:20;;;;;;;26.23;22.98;;;;;;;;;;5101691;28;20040;-33
2022/05/07 02:32:47;;;;;;;27.27;22.92;;;;;;;;;;5077984;28;20044;-31
2022/05/07 02:35:13;;;;;;;25.83;23.10;;;;;;;;;;5084326;28;20086;-32
2022/05/07 02:37:39;;;;;;;26.58;23.77;;;;;;;;;;5091182;28;20168;-31
2022/05/07 02:40:06;;;;;;;27.98;24.73;;;;;;;;;;5090795;28;20121;-32
2022/05/07 02:42:39;;;;;;;29.48;24.08;;;;;;;;;;5092290;28;20039;-31
2022/05/07 02:45:07;;;;;;;26.08;23.35;;;;;;;;;;5110434;28;20055;-31
2022/05/07 02:47:34;;;;;;;27.90;24.08;;;;;;;;;;5094255;28;20050;-31
2022/05/07 02:50:01;;;;;;;25.70;23.08;;;;;;;;;;5109766;28;20493;-32
2022/05/07 02:52:27;;;;;;;26.90;23.58;;;;;;;;;;5085696;28;20044;-30
2022/05/07 02:54:53;;;;;;;27.40;23.58;;;;;;;;;;5094209;28;20454;-31
2022/05/07 02:57:20;;;;;;;25.80;23.05;;;;;;;;;;5093750;28;20481;-32
2022/05/07 02:59:47;;;;;;;29.67;25.52;;;;;;;;;;5092764;28;20334;-33
2022/05/07 03:02:13;;;;;;;27.40;24.33;;;;;;;;;;5110404;28;20055;-31
2022/05/07 03:04:39;;;;;;;26.77;23.92;;;;;;;;;;5088268;28;20048;-34
2022/05/07 03:07:06;;;;;;;26.63;23.25;;;;;;;;;;5094934;28;20123;-32
2022/05/07 03:09:32;;;;;;;26.52;23.65;;;;;;;;;;5082953;28;20075;-35
2022/05/07 03:11:58;;;;;;;32.45;25.67;;;;;;;;;;5089806;28;20040;-31
2022/05/07 03:14:25;;;;;;;28.30;23.63;;;;;;;;;;5090582;28;20050;-30
2022/05/07 03:16:51;;;;;;;27.95;24.92;;;;;;;;;;5108483;28;20040;-33
2022/05/07 03:19:17;;;;;;;26.42;22.92;;;;;;;;;;5073241;28;20202;-32
2022/05/07 03:21:44;;;;;;;28.15;24.80;;;;;;;;;;5072822;28;20047;-32
2022/05/07 03:24:10;;;;;;;29.45;24.88;;;;;;;;;;5090275;28;20085;-32
2022/05/07 03:26:36;;;;;;;29.55;25.40;;;;;;;;;;5099529;28;20078;-33
2022/05/07 03:29:03;;;;;;;27.85;23.15;;;;;;;;;;5080767;28;20405;-34
2022/05/07 03:31:30;;;;;;;27.52;24.35;;;;;;;;;;5073215;28;20048;-32
2022/05/07 03:33:56;;;;;;;28.65;25.50;;;;;;;;;;5094940;28;20080;-32
2022/05/07 03:36:22;;;;;;;28.42;25.52;;;;;;;;;;5091973;28;20039;-31
2022/05/07 03:38:48;;;;;;;28.30;25.25;;;;;;;;;;5091763;28;20043;-32
2022/05/07 03:41:20;;;;;;;30.52;26.45;;;;;;;;;;5095560;28;20110;-31
2022/05/07 03:43:47;;;;;;;30.75;25.92;;;;;;;;;;5093899;28;20067;-31
2022/05/07 03:46:13;;;;;;;28.05;24.98;;;;;;;;;;5108984;28;20040;-29
2022/05/07 03:48:39;;;;;;;32.22;27.63;;;;;;;;;;5113961;28;20046;-30
2022/05/07 03:51:05;;;;;;;30.23;27.02;;;;;;;;;;5076850;28;20069;-32
2022/05/07 03:53:31;;;;;;;28.88;25.77;;;;;;;;;;5093578;28;20122;-32
2022/05/07 03:55:57;;;;;;;33.10;26.85;;;;;;;;;;5093280;28;20111;-31
2022/05/07 03:58:25;;;;;;;31.05;26.52;;;;;;;;;;5076599;28;20228;-33
2022/05/07 04:00:52;;;;;;;32.55;27.92;;;;;;;;;;5092992;28;20553;-31
2022/05/07 04:03:21;;;;;;;29.33;26.23;;;;;;;;;;5075785;28;20044;-30
2022/05/07 04:05:47;;;;;;;29.17;25.90;;;;;;;;;;5093517;28;20070;-30
2022/05/07 04:08:13;;;;;;;28.83;25.80;;;;;;;;;;5076100;28;20052;-34
2022/05/07 04:10:39;;;;;;;30.88;27.67;;;;;;;;;;5093497;28;20466;-30
2022/05/07 04:13:06;;;;;;;34.03;27.85;;;;;;;;;;5097377;28;20123;-29
2022/05/07 04:15:32;;;;;;;35.97;29.80;;;;;;;;;;5094283;28;20066;-32
2022/05/07 04:17:59;;;;;;;34.88;30.25;;;;;;;;;;5092787;28;20043;-31
2022/05/07 04:20:25;;;;;;;32.10;28.30;;;;;;;;;;5093011;28;20101;-29
2022/05/07 04:22:51;;;;;;;33.08;28.98;;;;;;;;;;5075436;28;20123;-32
2022/05/07 04:25:17;;;;;;;33.30;29.17;;;;;;;;;;5092925;28;20043;-29
2022/05/07 04:27:44;;;;;;;31.30;27.98;;;;;;;;;;5076589;28;20040;-31
2022/05/07 04:30:10;;;;;;;34.42;29.05;;;;;;;;;;5076434;28;20093;-29
2022/05/07 04:32:36;;;;;;;32.83;28.38;;;;;;;;;;5107888;28;20497;-33
2022/05/07 04:35:02;;;;;;;33.80;29.05;;;;;;;;;;5113117;28;20509;-31
2022/05/07 04:37:29;;;;;;;33.55;27.38;;;;;;;;;;5106953;28;20047;-30
2022/05/07 04:39:55;;;;;;;33.90;28.23;;;;;;;;;;5092896;28;20044;-31
2022/05/07 04:42:21;;;;;;;30.08;26.88;;;;;;;;;;5112312;28;20047;-32
2022/05/07 04:44:47;;;;;;;31.13;27.65;;;;;;;;;;5081391;28;20040;-32
2022/05/07 04:47:13;;;;;;;32.38;28.88;;;;;;;;;;5092178;28;20052;-29
2022/05/07 04:49:39;;;;;;;33.25;27.33;;;;;;;;;;5100890;28;20144;-29
2022/05/07 04:52:08;;;;;;;33.55;28.95;;;;;;;;;;5111800;28;20241;-30
2022/05/07 04:54:35;;;;;;;35.30;29.05;;;;;;;;;;5089997;28;20138;-30
2022/05/07 04:57:01;;;;;;;32.58;28.90;;;;;;;;;;5103335;27;20997;-29
2022/05/07 04:59:28;;;;;;;36.63;29.13;;;;;;;;;;5093141;28;20088;-33
2022/05/07 05:01:54;;;;;;;34.47;29.00;;;;;;;;;;5105945;27;20100;-31
2022/05/07 05:04:20;;;;;;;33.60;29.98;;;;;;;;;;5088517;28;20447;-31
2022/05/07 05:06:46;;;;;;;33.95;28.77;;;;;;;;;;5107635;27;20059;-32
2022/05/07 05:09:15;;;;;;;31.70;27.85;;;;;;;;;;5111883;27;20031;-32
2022/05/07 05:11:42;;;;;;;32.90;27.92;;;;;;;;;;5108714;27;20036;-36
2022/05/07 05:16:53;;;;;;;30.58;27.38;;;;;;;;;;5102161;27;20044;-31
2022/05/07 05:19:21;;;;;;;31.58;27.75;;;;;;;;;;5089266;28;20046;-30
2022/05/07 05:21:47;;;;;;;29.77;26.67;;;;;;;;;;5102448;27;20036;-30
2022/05/07 05:24:14;;;;;;;29.05;25.95;;;;;;;;;;5103361;27;20073;-30
2022/05/07 05:26:40;;;;;;;30.40;26.88;;;;;;;;;;5098000;27;20482;-31
2022/05/07 05:29:06;;;;;;;28.58;25.67;;;;;;;;;;5086596;28;20052;-30
2022/05/07 05:31:32;;;;;;;34.72;26.30;;;;;;;;;;5105355;27;20038;-31
2022/05/07 05:33:58;;;;;;;29.90;26.23;;;;;;;;;;5083070;27;20076;-33
2022/05/07 05:36:26;;;;;;;31.45;25.80;;;;;;;;;;5104202;27;20437;-31
2022/05/07 05:38:53;;;;;;;28.70;25.67;;;;;;;;;;5105233;27;20047;-30
2022/05/07 05:41:20;;;;;;;29.15;26.08;;;;;;;;;;5081650;28;20039;-29
2022/05/07 05:43:46;;;;;;;29.52;25.90;;;;;;;;;;5097082;28;20079;-29
2022/05/07 05:46:14;;;;;;;29.23;26.10;;;;;;;;;;5104949;28;20098;-28
2022/05/07 05:48:40;;;;;;;33.53;27.30;;;;;;;;;;5081404;28;20077;-29
2022/05/07 05:51:21;;;;;;;32.15;26.95;;;;;;;;;;5066497;28;20035;-32
2022/05/07 05:54:03;;;;;;;28.77;25.02;;;;;;;;;;5103180;27;20400;-29
2022/05/07 05:56:30;;;;;;;29.13;25.67;;;;;;;;;;5102430;28;20040;-29
2022/05/07 05:58:56;;;;;;;29.83;25.05;;;;;;;;;;5101174;28;20529;-32
2022/05/07 06:01:23;;;;;;;30.42;25.58;;;;;;;;;;5071029;28;20146;-31
2022/05/07 06:03:50;;;;;;;28.63;25.63;;;;;;;;;;5095128;28;20032;-28
2022/05/07 06:08:56;;;;;;;29.77;26.67;;;;;;;;;;5672984;22;20059;-85
2022/05/07 06:11:32;;;;;;;32.88;26.15;;;;;;;;;;5046693;28;20036;-84
2022/05/07 06:14:18;;;;;;;31.35;26.75;;;;;;;;;;5020818;28;20048;-85
2022/05/07 06:17:22;;;;;;;33.30;26.23;;;;;;;;;;5073340;28;20086;-85
2022/05/07 06:19:56;;;;;;;30.67;25.90;;;;;;;;;;5031048;28;20127;-84
2022/05/07 06:22:53;;;;;;;29.00;25.73;;;;;;;;;;5042763;28;20064;-84
2022/05/07 06:28:24;;;;;;;27.00;24.15;;;;;;;;;;5048817;28;20037;-85
2022/05/07 06:30:59;;;;;;;33.08;26.02;;;;;;;;;;5059006;28;20123;-85
2022/05/07 06:33:58;;;;;;;29.88;26.48;;;;;;;;;;5034423;28;20053;-85
2022/05/07 07:33:28;;;;;;;28.33;24.60;;;;;;;;;;5056346;28;20052;-78
2022/05/07 07:39:18;;;;;;;28.45;25.40;;;;;;;;;;5081297;28;20031;-77
2022/05/07 07:41:44;;;;;;;27.42;24.60;;;;;;;;;;5050995;28;20040;-82
2022/05/07 08:28:45;;;;;;;16.73;14.98;;;;;;;;;;5056804;28;20499;-86
2022/05/07 08:38:47;;;;;;;21.17;15.40;;;;;;;;;;5015217;28;20077;-86
2022/05/07 08:41:21;;;;;;;18.85;15.05;;;;;;;;;;4983959;28;20444;-86
2022/05/07 08:43:48;;;;;;;20.13;15.63;;;;;;;;;;4984215;28;20120;-86
2022/05/07 08:46:38;;;;;;;19.70;15.57;;;;;;;;;;4984067;28;20049;-86
2022/05/07 08:49:41;;;;;;;21.60;15.30;;;;;;;;;;4976717;28;20054;-86
2022/05/07 08:52:26;;;;;;;18.33;14.15;;;;;;;;;;4944971;28;20521;-86
2022/05/07 08:55:12;;;;;;;15.43;13.77;;;;;;;;;;4968685;28;20056;-86
2022/05/07 08:57:54;;;;;;;15.23;13.30;;;;;;;;;;4983540;28;20062;-86
2022/05/07 09:00:28;;;;;;;19.50;14.20;;;;;;;;;;4999511;28;20044;-86
2022/05/07 09:03:19;;;;;;;16.58;13.68;;;;;;;;;;4997910;28;20073;-86
2022/05/07 09:06:28;;;;;;;17.77;13.80;;;;;;;;;;4981093;28;20120;-86
2022/05/07 09:09:17;;;;;;;17.75;13.40;;;;;;;;;;4963604;28;20468;-86
2022/05/07 09:11:53;;;;;;;17.15;13.80;;;;;;;;;;4962664;28;20042;-86
2022/05/07 09:14:26;;;;;;;16.48;13.13;;;;;;;;;;4963086;28;20412;-87
2022/05/07 09:17:09;;;;;;;17.87;13.97;;;;;;;;;;4963955;28;20506;-86
2022/05/07 09:19:44;;;;;;;19.85;14.85;;;;;;;;;;4966239;28;20282;-86
2022/05/07 09:22:11;;;;;;;19.90;13.93;;;;;;;;;;5012716;28;20049;-87
2022/05/07 09:24:40;;;;;;;19.70;14.63;;;;;;;;;;5039700;28;20123;-87
2022/05/07 09:27:07;;;;;;;22.25;14.95;;;;;;;;;;5039947;28;20072;-86
2022/05/07 09:29:33;;;;;;;20.83;14.27;;;;;;;;;;5024695;28;20403;-87
2022/05/07 09:32:16;;;;;;;18.90;15.68;;;;;;;;;;5022962;28;20044;-87
2022/05/07 09:37:35;;;;;;;;;;;;;;;;;;5039411;28;20041;-86
2022/05/07 09:40:03;;;;;;;17.63;15.48;;;;;;;;;;5022881;28;19917;-86
2022/05/07 09:42:30;;;;;;;20.58;16.08;;;;;;;;;;5038788;28;20488;-86
2022/05/07 09:44:57;;;;;;;19.00;15.73;;;;;;;;;;5028980;28;20072;-87
2022/05/07 09:47:25;;;;;;;17.98;16.17;;;;;;;;;;5062008;28;20036;-87
2022/05/07 09:57:30;;;;;;;20.58;17.08;;;;;;;;;;5062367;28;20548;-87
2022/05/07 09:58:08;;;;;;;21.45;16.90;;;;;;;;;;5041239;28;20530;-86
2022/05/07 10:00:36;;;;;;;20.65;17.60;;;;;;;;;;5025623;28;20056;-86
2022/05/07 10:03:38;;;;;;;19.77;17.65;;;;;;;;;;5035821;28;20040;-87
2022/05/07 10:06:08;;;;;;;20.85;17.63;;;;;;;;;;4949999;28;20047;-87
2022/05/07 10:08:49;;;;;;;20.90;17.80;;;;;;;;;;5027117;28;20099;-87
2022/05/07 10:11:16;;;;;;;22.30;17.15;;;;;;;;;;5041103;28;20119;-87
2022/05/07 10:13:55;;;;;;;21.20;16.10;;;;;;;;;;5025068;28;20059;-86
2022/05/07 10:16:22;;;;;;;19.33;16.30;;;;;;;;;;5025048;28;20037;-86
2022/05/07 10:18:49;;;;;;;18.73;16.67;;;;;;;;;;5024714;28;20048;-86
2022/05/07 10:21:16;;;;;;;20.02;16.92;;;;;;;;;;5041280;28;20037;-86
2022/05/07 10:23:52;;;;;;;21.17;18.48;;;;;;;;;;5025254;28;20048;-87
2022/05/07 10:26:19;;;;;;;19.83;17.48;;;;;;;;;;5026526;28;20045;-87
2022/05/07 10:28:46;;;;;;;23.95;18.58;;;;;;;;;;5025639;28;20044;-86
2022/05/07 10:31:19;;;;;;;20.48;18.00;;;;;;;;;;5024700;28;20094;-87
2022/05/07 10:33:52;;;;;;;22.42;18.63;;;;;;;;;;5028081;28;20071;-87
2022/05/07 10:36:19;;;;;;;23.20;17.88;;;;;;;;;;5044319;28;20059;-87
2022/05/07 10:38:50;;;;;;;26.00;19.30;;;;;;;;;;5043102;28;20535;-87
2022/05/07 10:41:16;;;;;;;20.15;18.05;;;;;;;;;;5024476;28;20032;-87
2022/05/07 10:44:00;;;;;;;23.75;19.25;;;;;;;;;;5040567;28;20663;-87
2022/05/07 10:46:39;;;;;;;24.25;19.45;;;;;;;;;;5024196;28;20049;-87
2022/05/07 10:49:12;;;;;;;25.30;19.50;;;;;;;;;;5030648;28;20041;-87
2022/05/07 10:52:03;;;;;;;23.47;19.37;;;;;;;;;;5036021;28;20041;-86
2022/05/07 10:54:29;;;;;;;23.67;21.20;;;;;;;;;;5044134;28;20044;-87
2022/05/07 10:56:57;;;;;;;23.40;20.73;;;;;;;;;;5044091;28;20372;-87
2022/05/07 10:59:26;;;;;;;24.13;21.45;;;;;;;;;;5043332;28;20039;-88
2022/05/07 11:01:52;;;;;;;24.00;21.55;;;;;;;;;;5025682;28;20484;-87
2022/05/07 11:04:21;;;;;;;23.80;21.33;;;;;;;;;;5040882;28;20025;-87
2022/05/07 11:06:49;;;;;;;26.92;22.55;;;;;;;;;;5055169;28;20101;-86
2022/05/07 11:09:18;;;;;;;25.77;23.00;;;;;;;;;;5029112;28;20113;-87
2022/05/07 11:11:49;;;;;;;24.45;21.77;;;;;;;;;;5031029;28;20033;-87
2022/05/07 11:14:23;;;;;;;25.15;22.42;;;;;;;;;;5023841;28;20449;-87
2022/05/07 11:16:49;;;;;;;27.45;22.50;;;;;;;;;;5049526;28;20053;-87
2022/05/07 11:19:26;;;;;;;26.50;23.23;;;;;;;;;;5059912;28;20033;-87
2022/05/07 11:21:55;;;;;;;23.77;20.55;;;;;;;;;;5044562;28;20041;-87
2022/05/07 11:24:22;;;;;;;23.70;19.95;;;;;;;;;;5026754;28;20041;-88
2022/05/07 11:27:02;;;;;;;24.10;21.08;;;;;;;;;;5025018;28;20047;-87
2022/05/07 11:29:29;;;;;;;26.05;21.60;;;;;;;;;;5035121;28;20063;-87
2022/05/07 11:32:08;;;;;;;24.35;20.42;;;;;;;;;;5043783;28;20035;-90
2022/05/07 11:34:41;;;;;;;23.75;21.25;;;;;;;;;;5028546;28;20049;-87
2022/05/07 11:37:26;;;;;;;23.50;21.15;;;;;;;;;;5024539;28;20048;-86
2022/05/07 11:39:53;;;;;;;23.00;20.60;;;;;;;;;;5023465;28;20041;-87
2022/05/07 11:42:38;;;;;;;23.23;20.85;;;;;;;;;;5023293;28;20040;-87
2022/05/07 11:45:26;;;;;;;24.15;21.55;;;;;;;;;;5050423;28;20041;-88
2022/05/07 11:48:13;;;;;;;24.27;21.90;;;;;;;;;;5042970;28;20045;-87
2022/05/07 11:50:52;;;;;;;26.08;22.02;;;;;;;;;;5055828;28;20149;-87
2022/05/07 11:53:20;;;;;;;26.13;20.80;;;;;;;;;;5042002;28;20054;-87
2022/05/07 11:55:50;;;;;;;25.00;22.58;;;;;;;;;;5027682;28;20410;-87
2022/05/07 11:58:17;;;;;;;23.02;20.63;;;;;;;;;;5027894;28;20072;-87
2022/05/07 12:00:46;;;;;;;20.90;18.30;;;;;;;;;;5030981;28;20086;-87
2022/05/07 12:03:16;;;;;;;21.13;18.88;;;;;;;;;;5047443;28;20028;-87
2022/05/07 12:05:43;;;;;;;21.85;19.65;;;;;;;;;;5063853;28;20066;-87
2022/05/07 12:08:14;;;;;;;21.92;17.77;;;;;;;;;;5029106;28;20514;-87
2022/05/07 12:10:40;;;;;;;19.95;18.00;;;;;;;;;;5041771;28;20090;-87
2022/05/07 12:13:06;;;;;;;18.70;16.90;;;;;;;;;;5045401;28;20470;-87
2022/05/07 12:18:17;;;;;;;17.90;16.10;;;;;;;;;;5051918;28;20052;-87
2022/05/07 12:20:44;;;;;;;18.00;16.10;;;;;;;;;;5033145;28;20037;-86
2022/05/07 12:31:27;;;;;;;19.10;17.23;;;;;;;;;;5043507;28;20045;-86
2022/05/07 12:33:54;;;;;;;18.52;16.73;;;;;;;;;;5026604;28;20131;-86
2022/05/07 12:36:23;;;;;;;17.30;15.50;;;;;;;;;;5029628;28;20101;-87
2022/05/07 12:38:51;;;;;;;18.25;16.48;;;;;;;;;;5034160;28;20404;-87
2022/05/07 12:41:18;;;;;;;18.38;16.50;;;;;;;;;;5026411;28;20040;-86
2022/05/07 12:43:44;;;;;;;18.85;17.00;;;;;;;;;;5025946;28;20048;-86
2022/05/07 12:46:10;;;;;;;20.30;18.40;;;;;;;;;;5062142;28;20036;-86
2022/05/07 12:48:36;;;;;;;19.20;17.27;;;;;;;;;;5025726;28;20119;-86
2022/05/07 12:51:03;;;;;;;19.40;17.33;;;;;;;;;;5025657;28;20041;-86
2022/05/07 12:53:29;;;;;;;18.88;16.10;;;;;;;;;;5025834;28;20048;-87
2022/05/07 12:55:55;;;;;;;16.65;14.95;;;;;;;;;;5042848;28;20068;-87
2022/05/07 12:58:23;;;;;;;17.60;15.80;;;;;;;;;;5045093;28;20051;-86
2022/05/07 13:00:50;;;;;;;18.13;16.25;;;;;;;;;;5045406;28;20461;-86
2022/05/07 13:03:19;;;;;;;17.88;16.17;;;;;;;;;;5045154;28;20041;-87
2022/05/07 13:05:45;;;;;;;18.40;16.73;;;;;;;;;;5041072;28;20496;-87
2022/05/07 13:08:17;;;;;;;18.48;16.63;;;;;;;;;;5042330;28;20404;-86
2022/05/07 13:10:43;;;;;;;17.25;15.68;;;;;;;;;;5027007;28;20041;-86
2022/05/07 13:13:10;;;;;;;17.40;15.63;;;;;;;;;;5033409;28;20115;-87
2022/05/07 13:15:39;;;;;;;19.30;17.30;;;;;;;;;;5045601;28;20040;-86
2022/05/07 13:18:05;;;;;;;20.05;17.88;;;;;;;;;;5045176;28;20472;-88
2022/05/07 13:20:31;;;;;;;21.58;19.35;;;;;;;;;;5036530;28;20029;-87
2022/05/07 13:22:58;;;;;;;20.00;17.92;;;;;;;;;;5026388;28;20403;-86
2022/05/07 13:25:24;;;;;;;22.33;18.15;;;;;;;;;;5039936;28;20048;-86
2022/05/07 13:27:52;;;;;;;19.30;17.23;;;;;;;;;;5045806;28;20123;-85
2022/05/07 13:30:19;;;;;;;19.05;17.02;;;;;;;;;;5025570;28;20287;-86
2022/05/07 13:32:48;;;;;;;17.88;16.17;;;;;;;;;;5028819;28;20083;-86
2022/05/07 13:35:15;;;;;;;19.17;16.25;;;;;;;;;;5033162;28;20551;-86
2022/05/07 13:37:42;;;;;;;18.50;15.85;;;;;;;;;;5043877;28;20040;-87
2022/05/07 13:40:11;;;;;;;17.88;15.95;;;;;;;;;;5058853;28;20096;-86
2022/05/07 13:42:37;;;;;;;19.83;17.83;;;;;;;;;;5028844;28;20045;-86
2022/05/07 13:45:10;;;;;;;22.02;18.65;;;;;;;;;;5035335;28;20041;-86
2022/05/07 13:47:41;;;;;;;26.27;20.92;;;;;;;;;;5040073;28;20045;-85
2022/05/07 13:50:08;;;;;;;23.73;20.75;;;;;;;;;;5058365;28;20059;-85
2022/05/07 13:52:38;;;;;;;21.40;18.60;;;;;;;;;;5024368;28;20045;-86
2022/05/07 13:55:08;;;;;;;21.88;19.65;;;;;;;;;;5041549;28;20044;-86
2022/05/07 13:57:34;;;;;;;20.77;18.55;;;;;;;;;;5024924;28;20041;-87
2022/05/07 14:00:01;;;;;;;22.38;20.08;;;;;;;;;;5024456;28;20033;-86
2022/05/07 14:02:28;;;;;;;21.65;19.45;;;;;;;;;;5025337;28;20054;-85
2022/05/07 14:04:54;;;;;;;23.25;18.63;;;;;;;;;;5045377;28;20045;-86
2022/05/07 14:07:20;;;;;;;21.52;17.50;;;;;;;;;;5038729;28;20041;-87
2022/05/07 14:09:50;;;;;;;18.77;16.20;;;;;;;;;;5040025;28;20124;-87
2022/05/07 14:12:20;;;;;;;17.73;15.90;;;;;;;;;;5039298;28;20041;-85
2022/05/07 14:14:47;;;;;;;18.27;15.95;;;;;;;;;;5060952;28;20044;-86
2022/05/07 14:17:14;;;;;;;16.73;14.27;;;;;;;;;;5060931;28;20054;-85
2022/05/07 14:19:40;;;;;;;16.42;14.73;;;;;;;;;;5037740;28;20041;-86
2022/05/07 14:22:09;;;;;;;18.92;15.32;;;;;;;;;;5044028;28;20123;-87
2022/05/07 14:24:36;;;;;;;15.98;14.27;;;;;;;;;;5061873;28;20083;-85
2022/05/07 14:27:02;;;;;;;15.65;13.38;;;;;;;;;;5045757;28;20044;-85
2022/05/07 14:29:28;;;;;;;16.05;14.43;;;;;;;;;;5046987;28;20064;-86
2022/05/07 14:31:55;;;;;;;14.70;13.23;;;;;;;;;;5051841;28;20028;-88
2022/05/07 14:34:25;;;;;;;15.05;13.35;;;;;;;;;;5064456;28;20025;-87
2022/05/07 14:36:51;;;;;;;14.13;12.73;;;;;;;;;;5046725;28;20043;-86
2022/05/07 14:39:17;;;;;;;14.77;13.30;;;;;;;;;;5027369;28;20045;-86
2022/05/07 14:41:43;;;;;;;15.65;12.77;;;;;;;;;;5027268;28;20045;-87
2022/05/07 14:44:09;;;;;;;14.63;12.85;;;;;;;;;;5026133;28;20057;-87
2022/05/07 14:46:36;;;;;;;13.10;11.80;;;;;;;;;;5025674;28;20033;-86
2022/05/07 14:49:03;;;;;;;14.10;12.68;;;;;;;;;;5042174;28;20091;-87
2022/05/07 14:51:30;;;;;;;18.00;13.13;;;;;;;;;;5042743;28;20045;-86
2022/05/07 14:53:56;;;;;;;14.27;11.43;;;;;;;;;;5026991;28;20082;-86
2022/05/07 14:56:22;;;;;;;14.05;12.25;;;;;;;;;;5026281;28;20484;-86
2022/05/07 14:58:48;;;;;;;13.50;11.55;;;;;;;;;;5051445;28;20028;-89
2022/05/07 15:01:18;;;;;;;14.88;10.75;;;;;;;;;;5060889;28;20041;-88
2022/05/07 15:03:45;;;;;;;12.85;11.60;;;;;;;;;;5033531;28;20048;-87
2022/05/07 15:06:11;;;;;;;13.13;11.63;;;;;;;;;;5027303;28;20045;-87
2022/05/07 15:11:25;;;;;;;11.82;10.30;;;;;;;;;;5046699;28;20049;-86
2022/05/07 15:13:55;;;;;;;13.25;9.23;;;;;;;;;;5026128;28;20056;-86
2022/05/07 15:16:26;;;;;;;12.27;10.02;;;;;;;;;;5025610;28;20068;-87
2022/05/07 15:18:52;;;;;;;13.73;10.60;;;;;;;;;;5042903;28;20517;-87
2022/05/07 15:21:18;;;;;;;12.75;10.27;;;;;;;;;;5039642;28;20083;-86
2022/05/07 15:23:45;;;;;;;10.98;9.88;;;;;;;;;;5045803;28;20079;-86
2022/05/07 15:26:11;;;;;;;9.48;8.57;;;;;;;;;;5046817;28;20045;-86
2022/05/07 15:28:37;;;;;;;9.63;8.73;;;;;;;;;;5049493;28;20036;-86
2022/05/07 15:31:03;;;;;;;9.75;8.25;;;;;;;;;;5051280;28;20055;-87
2022/05/07 15:38:59;;;;;;;7.10;6.40;;;;;;;;;;5065982;28;20127;-86
2022/05/07 15:41:25;;;;;;;5.63;5.00;;;;;;;;;;5059056;28;20032;-87
2022/05/07 15:43:57;;;;;;;8.48;4.78;;;;;;;;;;5057149;28;20040;-87
2022/05/07 15:46:33;;;;;;;5.45;4.32;;;;;;;;;;5056322;28;20502;-86
2022/05/07 15:49:24;;;;;;;4.68;4.28;;;;;;;;;;5076426;28;20058;-87
2022/05/07 15:52:29;;;;;;;4.00;3.70;;;;;;;;;;5038776;28;20044;-87
2022/05/07 15:54:53;;;;;;;5.35;3.28;;;;;;;;;;5049590;28;20045;-88
2022/05/07 16:00:14;;;;;;;3.88;2.90;;;;;;;;;;5061914;22;20057;-33
2022/05/07 16:02:41;;;;;;;6.28;3.38;;;;;;;;;;5054055;28;20043;-32
2022/05/07 16:05:08;;;;;;;3.10;2.90;;;;;;;;;;5054704;28;20037;-32
2022/05/07 16:07:34;;;;;;;4.15;2.92;;;;;;;;;;5053852;28;20463;-31
2022/05/07 16:10:00;;;;;;;3.15;2.28;;;;;;;;;;5054104;28;20106;-30
2022/05/07 16:12:26;;;;;;;3.20;2.78;;;;;;;;;;5053860;28;20178;-31
2022/05/07 16:14:52;;;;;;;3.95;3.08;;;;;;;;;;5054254;28;20060;-34
2022/05/07 16:17:20;;;;;;;5.13;4.00;;;;;;;;;;5053838;28;20043;-31
2022/05/07 16:19:47;;;;;;;5.97;4.28;;;;;;;;;;5054107;28;20041;-32
2022/05/07 16:25:00;;;;;;;6.28;4.75;;;;;;;;;;5022124;28;20051;-32
2022/05/07 16:27:27;;;;;;;5.25;4.53;;;;;;;;;;5048047;28;20042;-31
2022/05/07 16:29:53;;;;;;;7.60;4.70;;;;;;;;;;5041929;28;20084;-30
2022/05/07 16:32:20;;;;;;;4.78;4.38;;;;;;;;;;5033991;28;20037;-32
2022/05/07 16:34:46;;;;;;;3.75;3.45;;;;;;;;;;5045203;28;20048;-31
2022/05/07 16:37:12;;;;;;;4.68;3.90;;;;;;;;;;5054021;28;20094;-34
2022/05/07 16:39:42;;;;;;;4.35;3.10;;;;;;;;;;5052706;28;20086;-31
2022/05/07 16:42:12;;;;;;;5.05;3.40;;;;;;;;;;5032091;28;20426;-32
2022/05/07 16:44:38;;;;;;;6.00;3.25;;;;;;;;;;5034312;28;20041;-31
2022/05/07 16:47:07;;;;;;;4.72;3.42;;;;;;;;;;5033670;28;20048;-32
2022/05/07 16:49:34;;;;;;;5.30;3.80;;;;;;;;;;5042116;28;20032;-31
2022/05/07 16:52:01;;;;;;;4.53;3.53;;;;;;;;;;5048463;28;20045;-31
2022/05/07 16:54:27;;;;;;;3.83;3.47;;;;;;;;;;5041418;28;20411;-31
2022/05/07 16:56:56;;;;;;;4.50;3.70;;;;;;;;;;5043027;28;20509;-32
2022/05/07 16:59:22;;;;;;;4.03;3.30;;;;;;;;;;5043990;28;20051;-31
2022/05/07 17:01:48;;;;;;;3.60;3.30;;;;;;;;;;5026267;28;20049;-33
2022/05/07 17:04:15;;;;;;;5.45;3.53;;;;;;;;;;5039929;28;20479;-32
2022/05/07 17:06:42;;;;;;;3.67;3.38;;;;;;;;;;5041663;28;20091;-32
2022/05/07 17:09:08;;;;;;;3.75;3.28;;;;;;;;;;5052182;28;20452;-34